sensor_id;sensor_type;location;lat;lon;timestamp;noise_LAeq;noise_LA_min;noise_LA_max;noise_LA01;noise_LA95
1754;Laerm;58380;48.312;9.246;2023-04-19T09:20:39;55.80;37.23;76.93;;
1754;Laerm;58380;48.312;9.246;2023-04-19T09:23:08;60.11;36.64;86.90;;
1754;Laerm;58380;48.312;9.246;2023-04-19T09:25:34;61.11;40.55;86.05;;
1754;Laerm;58380;48.312;9.246;2023-04-19T09:28:13;56.36;40.10;83.99;;
1754;Laerm;58380;48.312;9.246;2023-04-19T09:30:40;47.95;38.29;57.54;;
1754;Laerm;58380;48.312;9.246;2023-04-19T09:33:06;64.83;39.70;94.78;;
1754;Laerm;58380;48.312;9.246;2023-04-19T09:35:45;56.71;35.78;88.73;;
1754;Laerm;58380;48.312;9.246;2023-04-19T09:38:12;59.65;42.75;84.51;;
1754;Laerm;58380;48.312;9.246;2023-04-19T09:40:39;59.91;38.78;84.48;;
1754;Laerm;58380;48.312;9.246;2023-04-19T09:43:05;57.04;39.87;80.32;;
1754;Laerm;58380;48.312;9.246;2023-04-19T09:45:42;57.58;37.24;83.30;;
1754;Laerm;58380;48.312;9.246;2023-04-19T09:48:09;54.23;39.40;80.57;;
1754;Laerm;58380;48.312;9.246;2023-04-19T09:50:50;62.61;37.80;89.69;;
1754;Laerm;58380;48.312;9.246;2023-04-19T09:53:17;52.14;40.86;67.64;;
1754;Laerm;58380;48.312;9.246;2023-04-19T09:55:44;51.81;44.26;62.24;;
1754;Laerm;58380;48.312;9.246;2023-04-19T09:58:11;49.81;39.10;64.21;;
1754;Laerm;58380;48.312;9.246;2023-04-19T10:00:39;50.13;39.44;57.38;;
1754;Laerm;58380;48.312;9.246;2023-04-19T10:03:08;47.57;38.13;60.14;;
1754;Laerm;58380;48.312;9.246;2023-04-19T10:05:38;49.50;42.68;62.52;;
1754;Laerm;58380;48.312;9.246;2023-04-19T10:08:07;47.90;37.25;55.76;;
1754;Laerm;58380;48.312;9.246;2023-04-19T10:10:33;48.72;36.25;58.64;;
1754;Laerm;58380;48.312;9.246;2023-04-19T10:13:06;51.31;42.40;70.91;;
1754;Laerm;58380;48.312;9.246;2023-04-19T10:15:35;48.60;37.18;64.94;;
1754;Laerm;58380;48.312;9.246;2023-04-19T10:18:02;47.20;35.37;60.18;;
1754;Laerm;58380;48.312;9.246;2023-04-19T10:20:54;50.57;39.17;59.32;;
1754;Laerm;58380;48.312;9.246;2023-04-19T10:23:22;50.42;40.48;60.48;;
1754;Laerm;58380;48.312;9.246;2023-04-19T10:25:48;51.36;36.13;67.56;;
1754;Laerm;58380;48.312;9.246;2023-04-19T10:28:17;49.47;37.34;66.99;;
1754;Laerm;58380;48.312;9.246;2023-04-19T10:30:59;46.30;38.68;59.53;;
1754;Laerm;58380;48.312;9.246;2023-04-19T10:33:35;48.31;40.30;59.80;;
1754;Laerm;58380;48.312;9.246;2023-04-19T10:36:02;49.78;41.31;63.41;;
1754;Laerm;58380;48.312;9.246;2023-04-19T10:38:50;48.81;38.15;57.32;;
1754;Laerm;58380;48.312;9.246;2023-04-19T10:41:21;48.79;39.95;59.83;;
1754;Laerm;58380;48.312;9.246;2023-04-19T10:44:08;49.32;40.54;58.03;;
1754;Laerm;58380;48.312;9.246;2023-04-19T10:46:38;48.80;38.73;59.99;;
1754;Laerm;58380;48.312;9.246;2023-04-19T10:49:05;51.46;41.17;61.00;;
1754;Laerm;58380;48.312;9.246;2023-04-19T10:51:37;51.48;37.42;64.04;;
1754;Laerm;58380;48.312;9.246;2023-04-19T10:54:06;50.44;41.99;60.67;;
1754;Laerm;58380;48.312;9.246;2023-04-19T11:01:56;52.49;39.30;80.96;;
1754;Laerm;58380;48.312;9.246;2023-04-19T11:09:30;50.23;42.57;63.40;;
1754;Laerm;58380;48.312;9.246;2023-04-19T11:12:05;47.50;39.28;59.06;;
1754;Laerm;58380;48.312;9.246;2023-04-19T11:14:39;55.78;40.96;81.04;;
1754;Laerm;58380;48.312;9.246;2023-04-19T11:17:23;59.44;40.44;81.86;;
1754;Laerm;58380;48.312;9.246;2023-04-19T11:20:01;66.91;40.28;96.86;;
1754;Laerm;58380;48.312;9.246;2023-04-19T11:22:37;70.72;39.38;93.59;;
1754;Laerm;58380;48.312;9.246;2023-04-19T11:25:21;66.63;39.37;93.44;;
1754;Laerm;58380;48.312;9.246;2023-04-19T11:27:50;65.40;43.15;90.74;;
1754;Laerm;58380;48.312;9.246;2023-04-19T11:30:21;71.39;36.58;97.94;;
1754;Laerm;58380;48.312;9.246;2023-04-19T11:32:54;65.91;40.23;85.67;;
1754;Laerm;58380;48.312;9.246;2023-04-19T11:35:25;68.97;37.82;92.44;;
1754;Laerm;58380;48.312;9.246;2023-04-19T11:37:52;69.96;39.68;98.25;;
1754;Laerm;58380;48.312;9.246;2023-04-19T11:40:20;72.92;42.39;103.79;;
1754;Laerm;58380;48.312;9.246;2023-04-19T11:42:52;69.15;40.34;96.01;;
1754;Laerm;58380;48.312;9.246;2023-04-19T11:45:33;74.99;44.87;104.04;;
1754;Laerm;58380;48.312;9.246;2023-04-19T11:48:01;71.06;43.06;94.58;;
1754;Laerm;58380;48.312;9.246;2023-04-19T11:50:39;70.17;39.31;98.94;;
1754;Laerm;58380;48.312;9.246;2023-04-19T11:53:13;72.13;39.93;96.96;;
1754;Laerm;58380;48.312;9.246;2023-04-19T11:58:37;68.84;42.22;96.08;;
1754;Laerm;58380;48.312;9.246;2023-04-19T12:01:15;62.87;37.98;88.89;;
1754;Laerm;58380;48.312;9.246;2023-04-19T12:03:49;60.26;39.28;89.26;;
1754;Laerm;58380;48.312;9.246;2023-04-19T12:06:24;69.04;40.99;98.85;;
1754;Laerm;58380;48.312;9.246;2023-04-19T12:08:53;67.12;39.66;94.97;;
1754;Laerm;58380;48.312;9.246;2023-04-19T12:11:23;69.72;41.16;94.51;;
1754;Laerm;58380;48.312;9.246;2023-04-19T12:14:09;64.52;40.65;91.08;;
1754;Laerm;58380;48.312;9.246;2023-04-19T12:16:35;59.18;44.72;84.81;;
1754;Laerm;58380;48.312;9.246;2023-04-19T12:19:14;57.66;39.77;84.19;;
1754;Laerm;58380;48.312;9.246;2023-04-19T12:21:42;53.84;44.62;73.10;;
1754;Laerm;58380;48.312;9.246;2023-04-19T12:24:07;71.34;43.08;97.59;;
1754;Laerm;58380;48.312;9.246;2023-04-19T12:26:33;71.49;39.37;94.12;;
1754;Laerm;58380;48.312;9.246;2023-04-19T12:29:00;74.85;40.20;99.22;;
1754;Laerm;58380;48.312;9.246;2023-04-19T12:31:27;62.64;40.95;90.86;;
1754;Laerm;58380;48.312;9.246;2023-04-19T12:33:52;63.41;39.10;87.65;;
1754;Laerm;58380;48.312;9.246;2023-04-19T12:36:18;56.00;40.62;80.58;;
1754;Laerm;58380;48.312;9.246;2023-04-19T12:38:44;58.01;40.49;79.79;;
1754;Laerm;58380;48.312;9.246;2023-04-19T12:41:10;56.01;40.93;75.39;;
1754;Laerm;58380;48.312;9.246;2023-04-19T12:43:35;60.23;41.47;83.42;;
1754;Laerm;58380;48.312;9.246;2023-04-19T12:46:01;56.58;41.39;86.41;;
1754;Laerm;58380;48.312;9.246;2023-04-19T12:48:27;53.25;38.92;75.01;;
1754;Laerm;58380;48.312;9.246;2023-04-19T12:50:53;54.22;40.94;80.91;;
1754;Laerm;58380;48.312;9.246;2023-04-19T12:53:20;58.77;38.15;90.18;;
1754;Laerm;58380;48.312;9.246;2023-04-19T12:55:47;60.63;41.05;84.85;;
1754;Laerm;58380;48.312;9.246;2023-04-19T12:58:15;52.80;37.96;76.89;;
1754;Laerm;58380;48.312;9.246;2023-04-19T13:00:41;56.17;41.40;78.96;;
1754;Laerm;58380;48.312;9.246;2023-04-19T13:03:07;56.02;40.96;81.14;;
1754;Laerm;58380;48.312;9.246;2023-04-19T13:05:32;60.30;41.05;89.19;;
1754;Laerm;58380;48.312;9.246;2023-04-19T13:07:58;61.91;37.79;87.91;;
1754;Laerm;58380;48.312;9.246;2023-04-19T13:10:24;64.21;39.31;94.28;;
1754;Laerm;58380;48.312;9.246;2023-04-19T13:13:36;54.45;39.73;81.67;;
1754;Laerm;58380;48.312;9.246;2023-04-19T13:16:01;56.83;42.58;78.50;;
1754;Laerm;58380;48.312;9.246;2023-04-19T13:18:27;53.36;41.84;70.70;;
1754;Laerm;58380;48.312;9.246;2023-04-19T13:20:52;49.41;39.42;64.86;;
1754;Laerm;58380;48.312;9.246;2023-04-19T13:23:18;49.60;41.71;56.23;;
1754;Laerm;58380;48.312;9.246;2023-04-19T13:25:45;53.51;42.87;78.08;;
1754;Laerm;58380;48.312;9.246;2023-04-19T13:28:10;52.46;38.15;78.03;;
1754;Laerm;58380;48.312;9.246;2023-04-19T13:30:36;55.26;41.18;78.76;;
1754;Laerm;58380;48.312;9.246;2023-04-19T13:33:01;53.51;42.21;71.55;;
1754;Laerm;58380;48.312;9.246;2023-04-19T13:35:27;51.34;42.17;64.80;;
1754;Laerm;58380;48.312;9.246;2023-04-19T13:37:52;53.26;42.80;76.10;;
1754;Laerm;58380;48.312;9.246;2023-04-19T13:40:18;53.64;40.21;75.55;;
1754;Laerm;58380;48.312;9.246;2023-04-19T13:42:43;55.40;43.38;78.01;;
1754;Laerm;58380;48.312;9.246;2023-04-19T13:45:09;52.90;42.85;69.28;;
1754;Laerm;58380;48.312;9.246;2023-04-19T13:47:34;51.39;43.03;68.76;;
1754;Laerm;58380;48.312;9.246;2023-04-19T13:50:00;57.82;43.05;79.79;;
1754;Laerm;58380;48.312;9.246;2023-04-19T13:52:26;55.28;41.55;73.88;;
1754;Laerm;58380;48.312;9.246;2023-04-19T13:54:51;55.86;41.77;77.65;;
1754;Laerm;58380;48.312;9.246;2023-04-19T13:57:17;57.03;42.49;85.61;;
1754;Laerm;58380;48.312;9.246;2023-04-19T13:59:42;53.62;43.99;79.66;;
1754;Laerm;58380;48.312;9.246;2023-04-19T14:02:08;49.05;40.12;62.01;;
1754;Laerm;58380;48.312;9.246;2023-04-19T14:04:33;46.76;39.77;62.75;;
1754;Laerm;58380;48.312;9.246;2023-04-19T14:06:59;51.45;43.18;60.03;;
1754;Laerm;58380;48.312;9.246;2023-04-19T14:09:24;53.86;41.46;68.81;;
1754;Laerm;58380;48.312;9.246;2023-04-19T14:11:50;50.05;43.73;57.78;;
1754;Laerm;58380;48.312;9.246;2023-04-19T14:14:16;50.83;45.07;60.61;;
1754;Laerm;58380;48.312;9.246;2023-04-19T14:16:42;50.15;41.62;57.86;;
1754;Laerm;58380;48.312;9.246;2023-04-19T14:19:08;50.40;41.25;60.59;;
1754;Laerm;58380;48.312;9.246;2023-04-19T14:21:33;49.27;40.77;58.76;;
1754;Laerm;58380;48.312;9.246;2023-04-19T14:23:59;48.03;41.05;57.30;;
1754;Laerm;58380;48.312;9.246;2023-04-19T14:26:24;51.54;43.21;64.58;;
1754;Laerm;58380;48.312;9.246;2023-04-19T14:28:50;50.87;40.85;70.12;;
1754;Laerm;58380;48.312;9.246;2023-04-19T14:31:15;50.42;38.56;64.28;;
1754;Laerm;58380;48.312;9.246;2023-04-19T14:33:41;49.18;40.42;71.11;;
1754;Laerm;58380;48.312;9.246;2023-04-19T14:36:06;49.78;42.16;76.15;;
1754;Laerm;58380;48.312;9.246;2023-04-19T14:38:33;49.30;41.30;75.72;;
1754;Laerm;58380;48.312;9.246;2023-04-19T14:40:59;52.82;44.00;73.67;;
1754;Laerm;58380;48.312;9.246;2023-04-19T14:43:25;51.85;42.14;77.34;;
1754;Laerm;58380;48.312;9.246;2023-04-19T14:45:51;52.15;42.80;67.63;;
1754;Laerm;58380;48.312;9.246;2023-04-19T14:48:17;53.56;40.59;70.77;;
1754;Laerm;58380;48.312;9.246;2023-04-19T14:50:42;54.13;40.91;75.34;;
1754;Laerm;58380;48.312;9.246;2023-04-19T14:53:08;51.93;39.29;72.25;;
1754;Laerm;58380;48.312;9.246;2023-04-19T14:55:36;50.54;43.57;71.80;;
1754;Laerm;58380;48.312;9.246;2023-04-19T14:58:03;51.27;39.38;78.47;;
1754;Laerm;58380;48.312;9.246;2023-04-19T15:00:29;51.44;41.91;75.48;;
1754;Laerm;58380;48.312;9.246;2023-04-19T15:02:55;50.47;41.50;76.20;;
1754;Laerm;58380;48.312;9.246;2023-04-19T15:05:25;50.95;39.35;73.08;;
1754;Laerm;58380;48.312;9.246;2023-04-19T15:07:52;52.03;40.65;77.42;;
1754;Laerm;58380;48.312;9.246;2023-04-19T15:10:17;50.73;39.26;70.77;;
1754;Laerm;58380;48.312;9.246;2023-04-19T15:12:42;50.77;40.80;75.40;;
1754;Laerm;58380;48.312;9.246;2023-04-19T15:15:08;49.61;40.77;76.94;;
1754;Laerm;58380;48.312;9.246;2023-04-19T15:17:34;49.20;38.90;71.82;;
1754;Laerm;58380;48.312;9.246;2023-04-19T15:19:59;51.89;41.18;76.48;;
1754;Laerm;58380;48.312;9.246;2023-04-19T15:22:25;53.66;40.28;82.56;;
1754;Laerm;58380;48.312;9.246;2023-04-19T15:24:51;54.11;45.13;77.06;;
1754;Laerm;58380;48.312;9.246;2023-04-19T15:27:16;52.39;41.70;80.14;;
1754;Laerm;58380;48.312;9.246;2023-04-19T15:29:41;51.50;41.53;72.81;;
1754;Laerm;58380;48.312;9.246;2023-04-19T15:32:07;54.66;39.39;80.41;;
1754;Laerm;58380;48.312;9.246;2023-04-19T15:34:32;52.63;42.76;79.19;;
1754;Laerm;58380;48.312;9.246;2023-04-19T15:36:58;53.86;48.16;74.13;;
1754;Laerm;58380;48.312;9.246;2023-04-19T15:39:24;53.99;43.22;74.35;;
1754;Laerm;58380;48.312;9.246;2023-04-19T15:41:50;51.03;40.80;75.48;;
1754;Laerm;58380;48.312;9.246;2023-04-19T15:44:15;49.43;40.83;72.81;;
1754;Laerm;58380;48.312;9.246;2023-04-19T15:46:41;52.53;41.05;71.74;;
1754;Laerm;58380;48.312;9.246;2023-04-19T15:49:06;51.87;45.18;66.61;;
1754;Laerm;58380;48.312;9.246;2023-04-19T15:51:31;52.93;43.30;67.27;;
1754;Laerm;58380;48.312;9.246;2023-04-19T15:53:57;52.59;40.10;71.18;;
1754;Laerm;58380;48.312;9.246;2023-04-19T15:56:22;49.97;40.87;64.16;;
1754;Laerm;58380;48.312;9.246;2023-04-19T15:58:48;53.03;42.17;84.07;;
1754;Laerm;58380;48.312;9.246;2023-04-19T16:01:13;51.96;42.34;81.55;;
1754;Laerm;58380;48.312;9.246;2023-04-19T16:03:39;54.67;42.77;80.57;;
1754;Laerm;58380;48.312;9.246;2023-04-19T16:06:05;53.21;46.27;78.64;;
1754;Laerm;58380;48.312;9.246;2023-04-19T16:08:31;49.97;41.02;66.39;;
1754;Laerm;58380;48.312;9.246;2023-04-19T16:10:56;52.17;43.13;62.77;;
1754;Laerm;58380;48.312;9.246;2023-04-19T16:13:22;50.62;42.07;72.04;;
1754;Laerm;58380;48.312;9.246;2023-04-19T16:15:47;58.21;45.15;88.69;;
1754;Laerm;58380;48.312;9.246;2023-04-19T16:18:12;53.17;44.90;78.60;;
1754;Laerm;58380;48.312;9.246;2023-04-19T16:20:39;53.30;44.06;82.72;;
1754;Laerm;58380;48.312;9.246;2023-04-19T16:23:05;52.25;43.71;70.83;;
1754;Laerm;58380;48.312;9.246;2023-04-19T16:25:31;53.58;46.37;76.14;;
1754;Laerm;58380;48.312;9.246;2023-04-19T16:27:58;51.15;40.95;70.68;;
1754;Laerm;58380;48.312;9.246;2023-04-19T16:30:24;52.51;43.59;73.20;;
1754;Laerm;58380;48.312;9.246;2023-04-19T16:32:53;49.85;41.05;76.94;;
1754;Laerm;58380;48.312;9.246;2023-04-19T16:35:19;52.16;41.82;65.20;;
1754;Laerm;58380;48.312;9.246;2023-04-19T16:37:45;52.34;43.55;76.94;;
1754;Laerm;58380;48.312;9.246;2023-04-19T16:40:11;51.25;38.68;69.13;;
1754;Laerm;58380;48.312;9.246;2023-04-19T16:42:38;55.17;46.45;73.92;;
1754;Laerm;58380;48.312;9.246;2023-04-19T16:45:05;53.16;43.06;79.43;;
1754;Laerm;58380;48.312;9.246;2023-04-19T16:47:32;52.52;41.59;78.86;;
1754;Laerm;58380;48.312;9.246;2023-04-19T16:49:59;49.99;38.23;74.60;;
1754;Laerm;58380;48.312;9.246;2023-04-19T16:52:26;50.92;42.32;68.14;;
1754;Laerm;58380;48.312;9.246;2023-04-19T16:54:52;61.46;45.63;94.48;;
1754;Laerm;58380;48.312;9.246;2023-04-19T16:57:18;54.34;43.52;83.15;;
1754;Laerm;58380;48.312;9.246;2023-04-19T16:59:44;52.19;39.72;77.76;;
1754;Laerm;58380;48.312;9.246;2023-04-19T17:02:10;49.99;40.42;75.54;;
1754;Laerm;58380;48.312;9.246;2023-04-19T17:04:36;50.18;39.69;71.13;;
1754;Laerm;58380;48.312;9.246;2023-04-19T17:07:01;50.36;42.67;72.48;;
1754;Laerm;58380;48.312;9.246;2023-04-19T17:09:28;49.36;39.90;68.02;;
1754;Laerm;58380;48.312;9.246;2023-04-19T17:11:54;54.78;39.64;83.40;;
1754;Laerm;58380;48.312;9.246;2023-04-19T17:14:24;52.73;40.27;77.86;;
1754;Laerm;58380;48.312;9.246;2023-04-19T17:16:49;53.59;38.10;72.92;;
1754;Laerm;58380;48.312;9.246;2023-04-19T17:19:15;53.86;40.57;68.73;;
1754;Laerm;58380;48.312;9.246;2023-04-19T17:21:41;54.12;42.35;70.60;;
1754;Laerm;58380;48.312;9.246;2023-04-19T17:24:07;54.63;36.98;68.72;;
1754;Laerm;58380;48.312;9.246;2023-04-19T17:26:33;54.92;39.83;68.59;;
1754;Laerm;58380;48.312;9.246;2023-04-19T17:28:58;51.23;36.17;65.55;;
1754;Laerm;58380;48.312;9.246;2023-04-19T17:31:24;50.65;38.74;64.37;;
1754;Laerm;58380;48.312;9.246;2023-04-19T17:33:49;48.75;38.52;56.13;;
1754;Laerm;58380;48.312;9.246;2023-04-19T17:36:15;49.14;42.12;63.83;;
1754;Laerm;58380;48.312;9.246;2023-04-19T17:38:40;50.87;40.89;64.18;;
1754;Laerm;58380;48.312;9.246;2023-04-19T17:41:06;52.04;35.97;66.44;;
1754;Laerm;58380;48.312;9.246;2023-04-19T17:43:34;52.93;40.31;74.03;;
1754;Laerm;58380;48.312;9.246;2023-04-19T17:45:59;48.93;37.67;71.18;;
1754;Laerm;58380;48.312;9.246;2023-04-19T17:48:25;50.81;37.14;64.46;;
1754;Laerm;58380;48.312;9.246;2023-04-19T17:50:50;56.09;41.00;73.84;;
1754;Laerm;58380;48.312;9.246;2023-04-19T17:53:15;50.80;36.67;75.67;;
1754;Laerm;58380;48.312;9.246;2023-04-19T17:55:41;53.43;39.56;85.04;;
1754;Laerm;58380;48.312;9.246;2023-04-19T17:58:06;52.79;41.58;81.11;;
1754;Laerm;58380;48.312;9.246;2023-04-19T18:00:32;53.76;37.30;86.01;;
1754;Laerm;58380;48.312;9.246;2023-04-19T18:02:57;51.61;38.20;80.13;;
1754;Laerm;58380;48.312;9.246;2023-04-19T18:05:23;49.96;37.33;72.89;;
1754;Laerm;58380;48.312;9.246;2023-04-19T18:07:48;48.86;38.40;63.41;;
1754;Laerm;58380;48.312;9.246;2023-04-19T18:10:13;49.87;36.62;65.51;;
1754;Laerm;58380;48.312;9.246;2023-04-19T18:12:39;49.68;38.86;60.25;;
1754;Laerm;58380;48.312;9.246;2023-04-19T18:15:05;51.69;38.31;67.55;;
1754;Laerm;58380;48.312;9.246;2023-04-19T18:17:31;48.91;39.01;61.20;;
1754;Laerm;58380;48.312;9.246;2023-04-19T18:19:56;49.09;37.09;61.93;;
1754;Laerm;58380;48.312;9.246;2023-04-19T18:22:22;49.76;39.53;64.53;;
1754;Laerm;58380;48.312;9.246;2023-04-19T18:24:47;48.60;37.47;61.05;;
1754;Laerm;58380;48.312;9.246;2023-04-19T18:27:16;47.66;36.01;60.89;;
1754;Laerm;58380;48.312;9.246;2023-04-19T18:29:41;47.78;37.66;65.32;;
1754;Laerm;58380;48.312;9.246;2023-04-19T18:32:07;50.45;35.77;63.92;;
1754;Laerm;58380;48.312;9.246;2023-04-19T18:34:32;48.75;35.51;63.24;;
1754;Laerm;58380;48.312;9.246;2023-04-19T18:37:00;46.95;38.36;57.89;;
1754;Laerm;58380;48.312;9.246;2023-04-19T18:39:27;45.31;35.44;60.37;;
1754;Laerm;58380;48.312;9.246;2023-04-19T18:41:52;45.16;37.29;70.59;;
1754;Laerm;58380;48.312;9.246;2023-04-19T18:44:18;43.92;36.13;68.37;;
1754;Laerm;58380;48.312;9.246;2023-04-19T18:46:44;49.05;35.32;79.74;;
1754;Laerm;58380;48.312;9.246;2023-04-19T18:49:09;44.17;34.37;73.51;;
1754;Laerm;58380;48.312;9.246;2023-04-19T18:51:35;48.17;35.78;81.41;;
1754;Laerm;58380;48.312;9.246;2023-04-19T18:54:02;47.37;34.92;80.11;;
1754;Laerm;58380;48.312;9.246;2023-04-19T18:56:27;45.58;36.56;67.14;;
1754;Laerm;58380;48.312;9.246;2023-04-19T18:58:53;44.88;34.12;67.91;;
1754;Laerm;58380;48.312;9.246;2023-04-19T19:01:19;45.13;34.64;65.32;;
1754;Laerm;58380;48.312;9.246;2023-04-19T19:03:45;42.89;35.52;68.25;;
1754;Laerm;58380;48.312;9.246;2023-04-19T19:06:10;48.24;34.73;83.56;;
1754;Laerm;58380;48.312;9.246;2023-04-19T19:08:37;44.66;35.71;63.25;;
1754;Laerm;58380;48.312;9.246;2023-04-19T19:11:03;40.28;33.77;61.20;;
1754;Laerm;58380;48.312;9.246;2023-04-19T19:13:29;41.48;35.41;51.50;;
1754;Laerm;58380;48.312;9.246;2023-04-19T19:15:54;43.85;34.81;49.33;;
1754;Laerm;58380;48.312;9.246;2023-04-19T19:18:20;44.78;35.44;66.11;;
1754;Laerm;58380;48.312;9.246;2023-04-19T19:20:45;40.86;33.58;50.63;;
1754;Laerm;58380;48.312;9.246;2023-04-19T19:23:11;44.81;33.86;56.58;;
1754;Laerm;58380;48.312;9.246;2023-04-19T19:25:37;43.86;34.58;63.27;;
1754;Laerm;58380;48.312;9.246;2023-04-19T19:28:02;48.98;34.14;70.68;;
1754;Laerm;58380;48.312;9.246;2023-04-19T19:30:28;41.79;33.81;52.39;;
1754;Laerm;58380;48.312;9.246;2023-04-19T19:32:57;43.98;36.31;50.02;;
1754;Laerm;58380;48.312;9.246;2023-04-19T19:35:23;40.18;33.05;58.41;;
1754;Laerm;58380;48.312;9.246;2023-04-19T19:37:48;42.09;35.16;54.89;;
1754;Laerm;58380;48.312;9.246;2023-04-19T19:40:14;37.55;34.14;44.18;;
1754;Laerm;58380;48.312;9.246;2023-04-19T19:42:39;41.46;34.43;49.33;;
1754;Laerm;58380;48.312;9.246;2023-04-19T19:45:06;39.13;33.08;48.50;;
1754;Laerm;58380;48.312;9.246;2023-04-19T19:47:32;43.25;33.39;54.64;;
1754;Laerm;58380;48.312;9.246;2023-04-19T19:50:01;42.17;34.05;52.23;;
1754;Laerm;58380;48.312;9.246;2023-04-19T19:52:27;44.14;34.39;50.91;;
1754;Laerm;58380;48.312;9.246;2023-04-19T19:54:52;42.95;33.05;55.47;;
1754;Laerm;58380;48.312;9.246;2023-04-19T19:57:18;40.13;33.58;54.68;;
1754;Laerm;58380;48.312;9.246;2023-04-19T19:59:43;37.58;33.13;48.51;;
1754;Laerm;58380;48.312;9.246;2023-04-19T20:02:09;41.07;33.13;52.62;;
1754;Laerm;58380;48.312;9.246;2023-04-19T20:04:34;45.99;35.75;54.72;;
1754;Laerm;58380;48.312;9.246;2023-04-19T20:07:03;41.31;34.20;50.50;;
1754;Laerm;58380;48.312;9.246;2023-04-19T20:09:28;44.08;35.58;53.53;;
1754;Laerm;58380;48.312;9.246;2023-04-19T20:11:54;43.74;35.47;55.48;;
1754;Laerm;58380;48.312;9.246;2023-04-19T20:14:22;43.73;35.74;56.54;;
1754;Laerm;58380;48.312;9.246;2023-04-19T20:16:48;43.34;34.61;50.77;;
